Time;durP1;ratioP1;P1;durP2;ratioP2;P2;SDS_P1;SDS_P2;PMS_P1;PMS_P2;Temp;Humidity;BMP_temperature;BMP_pressure;BME280_temperature;BME280_humidity;BME280_pressure;Samples;Min_cycle;Max_cycle;Signal;HPM_P1;HPM_P2
2021/07/14 00:01:11;;;;;;;10.80;4.50;;;;;;;;;;3589095;40;20032;-62
2021/07/14 00:03:37;;;;;;;11.20;5.00;;;;;;;;;;3590301;40;20063;-61
2021/07/14 00:06:02;;;;;;;16.10;4.33;;;;;;;;;;3589074;40;20054;-62
2021/07/14 00:08:27;;;;;;;10.60;4.40;;;;;;;;;;3589834;39;20128;-62
2021/07/14 00:10:52;;;;;;;9.37;4.57;;;;;;;;;;3589675;40;20070;-62
2021/07/14 00:23:51;;;;;;;18.23;4.88;;;;;;;;;;3589813;40;20046;-62
2021/07/14 00:26:16;;;;;;;13.60;4.18;;;;;;;;;;3590906;39;20084;-62
2021/07/14 00:28:47;;;;;;;16.87;4.13;;;;;;;;;;3591228;40;20024;-61
2021/07/14 00:31:14;;;;;;;12.38;4.38;;;;;;;;;;3590013;39;20030;-61
2021/07/14 00:33:40;;;;;;;13.32;4.32;;;;;;;;;;3590127;40;20032;-62
2021/07/14 00:36:05;;;;;;;9.67;4.33;;;;;;;;;;3591591;40;20042;-61
2021/07/14 00:38:30;;;;;;;15.67;4.43;;;;;;;;;;3590857;40;20079;-61
2021/07/14 00:40:55;;;;;;;15.20;4.90;;;;;;;;;;3589895;40;20168;-61
2021/07/14 00:43:21;;;;;;;12.57;4.70;;;;;;;;;;3591232;40;20040;-61
2021/07/14 00:45:46;;;;;;;14.90;5.00;;;;;;;;;;3591633;40;20042;-61
2021/07/14 00:48:11;;;;;;;12.27;4.53;;;;;;;;;;3591345;40;20028;-61
2021/07/14 00:50:38;;;;;;;17.23;4.60;;;;;;;;;;3591042;40;20254;-61
2021/07/14 00:53:03;;;;;;;19.20;5.00;;;;;;;;;;3591132;39;20021;-61
2021/07/14 00:55:28;;;;;;;10.33;4.53;;;;;;;;;;3591134;40;20079;-61
2021/07/14 00:57:54;;;;;;;17.80;5.33;;;;;;;;;;3591226;40;20394;-61
2021/07/14 01:00:19;;;;;;;15.93;4.73;;;;;;;;;;3589339;40;20035;-61
2021/07/14 01:02:44;;;;;;;14.77;5.07;;;;;;;;;;3591207;40;20024;-61
2021/07/14 01:05:09;;;;;;;21.67;5.33;;;;;;;;;;3590974;40;20262;-61
2021/07/14 01:07:34;;;;;;;15.57;5.77;;;;;;;;;;3590981;40;20028;-61
2021/07/14 01:09:59;;;;;;;13.17;5.40;;;;;;;;;;3590904;40;20025;-61
2021/07/14 01:12:25;;;;;;;14.80;5.57;;;;;;;;;;3587538;40;20126;-61
2021/07/14 01:14:50;;;;;;;16.30;4.93;;;;;;;;;;3589673;40;20032;-62
2021/07/14 01:17:15;;;;;;;15.83;4.90;;;;;;;;;;3589352;40;20224;-61
2021/07/14 01:19:40;;;;;;;16.10;6.17;;;;;;;;;;3590230;39;20246;-61
2021/07/14 01:22:05;;;;;;;16.43;5.23;;;;;;;;;;3591073;40;20040;-61
2021/07/14 01:24:31;;;;;;;16.80;5.80;;;;;;;;;;3590360;40;20035;-61
2021/07/14 01:26:56;;;;;;;12.10;5.50;;;;;;;;;;3591594;40;20129;-61
2021/07/14 01:29:21;;;;;;;13.80;5.77;;;;;;;;;;3591249;40;20035;-63
2021/07/14 01:31:46;;;;;;;15.77;6.13;;;;;;;;;;3591856;40;20016;-61
2021/07/14 01:34:11;;;;;;;22.53;6.47;;;;;;;;;;3591903;40;20091;-61
2021/07/14 01:36:37;;;;;;;15.10;6.25;;;;;;;;;;3590615;40;20040;-61
2021/07/14 01:39:02;;;;;;;12.67;6.83;;;;;;;;;;3592958;40;20262;-61
2021/07/14 01:41:27;;;;;;;14.52;6.57;;;;;;;;;;3590905;40;20051;-61
2021/07/14 01:43:53;;;;;;;12.63;6.07;;;;;;;;;;3591944;40;20491;-61
2021/07/14 01:46:18;;;;;;;12.25;6.25;;;;;;;;;;3591731;39;20427;-61
2021/07/14 01:48:43;;;;;;;12.70;5.87;;;;;;;;;;3593099;40;20043;-61
2021/07/14 01:51:08;;;;;;;15.87;6.50;;;;;;;;;;3591036;40;20347;-61
2021/07/14 01:53:33;;;;;;;14.80;7.17;;;;;;;;;;3591010;40;20176;-61
2021/07/14 01:55:59;;;;;;;15.70;7.07;;;;;;;;;;3592543;40;20055;-61
2021/07/14 01:58:24;;;;;;;13.63;6.87;;;;;;;;;;3590740;40;20067;-61
2021/07/14 02:00:52;;;;;;;14.13;6.87;;;;;;;;;;3592307;40;20021;-61
2021/07/14 02:06:02;;;;;;;15.18;6.65;;;;;;;;;;3580156;40;20126;-61
2021/07/14 02:08:28;;;;;;;14.90;7.13;;;;;;;;;;3591834;40;20036;-61
2021/07/14 02:10:53;;;;;;;20.10;7.00;;;;;;;;;;3591893;40;20045;-61
2021/07/14 02:13:18;;;;;;;12.35;6.45;;;;;;;;;;3592064;39;20043;-61
2021/07/14 02:15:43;;;;;;;11.57;6.73;;;;;;;;;;3592141;40;20091;-61
2021/07/14 02:18:09;;;;;;;11.82;6.43;;;;;;;;;;3590464;40;20122;-61
2021/07/14 02:20:34;;;;;;;12.70;6.47;;;;;;;;;;3591093;40;20024;-61
2021/07/14 02:23:01;;;;;;;15.87;6.90;;;;;;;;;;3590838;40;20101;-61
2021/07/14 02:25:26;;;;;;;21.35;7.75;;;;;;;;;;3592143;39;20254;-61
2021/07/14 02:27:52;;;;;;;23.37;8.27;;;;;;;;;;3592028;40;20024;-61
2021/07/14 02:30:18;;;;;;;21.67;7.70;;;;;;;;;;3591652;39;20035;-61
2021/07/14 02:32:44;;;;;;;13.93;6.85;;;;;;;;;;3591360;39;20035;-61
2021/07/14 02:35:09;;;;;;;14.73;7.75;;;;;;;;;;3590816;40;20044;-61
2021/07/14 02:37:34;;;;;;;14.27;7.37;;;;;;;;;;3591700;40;20133;-61
2021/07/14 02:39:59;;;;;;;17.60;8.60;;;;;;;;;;3591835;40;20039;-61
2021/07/14 02:42:29;;;;;;;18.83;8.70;;;;;;;;;;3592035;40;20500;-61
2021/07/14 02:44:54;;;;;;;15.13;7.70;;;;;;;;;;3591958;39;20050;-61
2021/07/14 02:47:19;;;;;;;15.33;8.00;;;;;;;;;;3591899;40;20297;-61
2021/07/14 02:49:44;;;;;;;17.77;7.80;;;;;;;;;;3592128;40;20028;-61
2021/07/14 02:52:09;;;;;;;17.47;8.37;;;;;;;;;;3591847;40;20027;-61
2021/07/14 02:54:35;;;;;;;19.03;8.60;;;;;;;;;;3591493;40;20063;-61
2021/07/14 02:57:01;;;;;;;12.03;7.07;;;;;;;;;;3591939;40;20795;-61
2021/07/14 02:59:26;;;;;;;11.00;7.10;;;;;;;;;;3591516;39;20542;-62
2021/07/14 03:01:52;;;;;;;13.50;7.32;;;;;;;;;;3591270;39;20032;-61
2021/07/14 03:04:17;;;;;;;15.32;7.65;;;;;;;;;;3591754;39;20036;-61
2021/07/14 03:06:42;;;;;;;20.30;7.70;;;;;;;;;;3591467;40;20047;-66
2021/07/14 03:09:07;;;;;;;18.73;7.77;;;;;;;;;;3591527;40;20113;-67
2021/07/14 03:11:33;;;;;;;16.40;7.73;;;;;;;;;;3589968;40;20110;-66
2021/07/14 03:13:58;;;;;;;15.65;7.65;;;;;;;;;;3591012;39;20250;-67
2021/07/14 03:16:24;;;;;;;20.80;8.00;;;;;;;;;;3589674;40;20041;-67
2021/07/14 03:18:50;;;;;;;13.35;7.22;;;;;;;;;;3591679;39;20032;-67
2021/07/14 03:21:15;;;;;;;16.52;8.25;;;;;;;;;;3591108;39;20028;-67
2021/07/14 03:23:40;;;;;;;15.63;8.43;;;;;;;;;;3590854;40;20085;-67
2021/07/14 03:26:06;;;;;;;18.80;7.80;;;;;;;;;;3590980;40;20032;-67
2021/07/14 03:28:31;;;;;;;14.90;8.40;;;;;;;;;;3590732;39;20031;-67
2021/07/14 03:31:00;;;;;;;22.63;9.20;;;;;;;;;;3590428;40;20317;-67
2021/07/14 03:33:26;;;;;;;14.95;9.05;;;;;;;;;;3590269;39;20047;-66
2021/07/14 03:35:51;;;;;;;13.17;8.27;;;;;;;;;;3589993;40;20036;-67
2021/07/14 03:38:17;;;;;;;26.73;11.73;;;;;;;;;;3589876;40;20536;-61
2021/07/14 03:40:42;;;;;;;21.10;10.63;;;;;;;;;;3590793;39;20045;-60
2021/07/14 03:43:07;;;;;;;28.17;11.45;;;;;;;;;;3589115;39;20088;-61
2021/07/14 03:45:32;;;;;;;24.03;11.83;;;;;;;;;;3590799;40;20044;-61
2021/07/14 03:47:58;;;;;;;31.10;12.00;;;;;;;;;;3590670;39;20511;-61
2021/07/14 03:50:23;;;;;;;24.33;11.37;;;;;;;;;;3590136;40;20822;-61
2021/07/14 03:52:48;;;;;;;28.67;11.87;;;;;;;;;;3591566;40;20421;-61
2021/07/14 03:55:14;;;;;;;28.17;12.27;;;;;;;;;;3591702;39;20103;-61
2021/07/14 03:57:40;;;;;;;27.50;12.13;;;;;;;;;;3590031;40;20060;-61
2021/07/14 04:00:05;;;;;;;28.10;11.77;;;;;;;;;;3589706;40;20031;-61
2021/07/14 04:02:32;;;;;;;29.73;13.15;;;;;;;;;;3591424;39;20056;-61
2021/07/14 04:04:57;;;;;;;30.10;13.13;;;;;;;;;;3589580;40;20047;-61
2021/07/14 04:07:22;;;;;;;31.87;14.13;;;;;;;;;;3591051;40;20594;-61
2021/07/14 04:09:48;;;;;;;28.83;13.77;;;;;;;;;;3591104;39;20348;-61
2021/07/14 04:12:13;;;;;;;25.45;13.27;;;;;;;;;;3590575;39;20035;-61
2021/07/14 04:14:38;;;;;;;26.97;12.53;;;;;;;;;;3591056;39;20032;-61
2021/07/14 04:17:03;;;;;;;28.10;12.73;;;;;;;;;;3590614;40;20021;-61
2021/07/14 04:19:29;;;;;;;32.38;12.98;;;;;;;;;;3589332;40;20031;-61
2021/07/14 04:21:54;;;;;;;29.17;13.40;;;;;;;;;;3590410;40;20056;-61
2021/07/14 04:24:19;;;;;;;37.83;15.30;;;;;;;;;;3590153;39;20068;-61
2021/07/14 04:26:44;;;;;;;32.50;14.17;;;;;;;;;;3588254;40;20058;-61
2021/07/14 04:29:10;;;;;;;40.43;14.57;;;;;;;;;;3590600;40;20239;-61
2021/07/14 04:31:35;;;;;;;29.43;13.60;;;;;;;;;;3590299;40;20036;-61
2021/07/14 04:34:00;;;;;;;35.93;15.17;;;;;;;;;;3590144;39;20783;-61
2021/07/14 04:36:25;;;;;;;29.30;13.47;;;;;;;;;;3590169;40;20400;-61
2021/07/14 04:38:50;;;;;;;36.00;13.37;;;;;;;;;;3590969;39;20058;-61
2021/07/14 04:41:16;;;;;;;25.77;12.73;;;;;;;;;;3589298;40;20064;-61
2021/07/14 04:43:41;;;;;;;33.53;14.93;;;;;;;;;;3590833;40;20074;-61
2021/07/14 04:46:06;;;;;;;29.63;14.30;;;;;;;;;;3590790;40;20394;-61
2021/07/14 04:48:31;;;;;;;34.47;15.10;;;;;;;;;;3589341;40;20024;-61
2021/07/14 04:50:56;;;;;;;33.80;15.03;;;;;;;;;;3590949;39;20036;-61
2021/07/14 04:53:22;;;;;;;34.67;14.43;;;;;;;;;;3590915;40;20046;-61
2021/07/14 04:55:47;;;;;;;33.57;15.20;;;;;;;;;;3592461;39;20278;-61
2021/07/14 04:58:12;;;;;;;30.63;14.30;;;;;;;;;;3592567;39;20277;-61
2021/07/14 05:00:37;;;;;;;32.53;15.97;;;;;;;;;;3591522;40;20032;-61
2021/07/14 05:03:02;;;;;;;34.37;14.73;;;;;;;;;;3592510;40;20021;-61
2021/07/14 05:05:27;;;;;;;31.43;15.80;;;;;;;;;;3592040;40;20711;-61
2021/07/14 05:07:53;;;;;;;33.97;14.73;;;;;;;;;;3592005;39;20035;-61
2021/07/14 05:10:24;;;;;;;40.77;17.30;;;;;;;;;;3589990;40;20157;-61
2021/07/14 05:12:49;;;;;;;33.95;15.85;;;;;;;;;;3590226;40;20024;-61
2021/07/14 05:15:14;;;;;;;33.10;15.73;;;;;;;;;;3591154;39;20024;-61
2021/07/14 05:17:40;;;;;;;34.83;15.43;;;;;;;;;;3588456;40;20025;-61
2021/07/14 05:20:05;;;;;;;36.23;16.90;;;;;;;;;;3590515;40;20025;-61
2021/07/14 05:22:30;;;;;;;32.67;15.43;;;;;;;;;;3591534;40;20035;-61
2021/07/14 05:24:55;;;;;;;33.17;17.40;;;;;;;;;;3591341;40;20635;-61
2021/07/14 05:27:20;;;;;;;27.30;14.67;;;;;;;;;;3591199;40;20032;-61
2021/07/14 05:29:46;;;;;;;37.73;16.30;;;;;;;;;;3591828;40;20036;-61
2021/07/14 05:32:11;;;;;;;27.10;14.57;;;;;;;;;;3591797;40;20125;-61
2021/07/14 05:34:36;;;;;;;43.80;16.97;;;;;;;;;;3591571;40;20036;-61
2021/07/14 05:37:01;;;;;;;33.43;15.70;;;;;;;;;;3590508;40;20032;-61
2021/07/14 05:39:26;;;;;;;34.93;16.87;;;;;;;;;;3590906;40;20024;-61
2021/07/14 05:41:51;;;;;;;31.70;16.50;;;;;;;;;;3591325;40;20036;-61
2021/07/14 05:44:17;;;;;;;39.23;16.17;;;;;;;;;;3590605;40;20024;-61
2021/07/14 05:46:42;;;;;;;27.52;15.00;;;;;;;;;;3592051;40;20137;-61
2021/07/14 05:49:07;;;;;;;31.37;16.30;;;;;;;;;;3590520;40;20023;-61
2021/07/14 05:51:32;;;;;;;27.50;15.37;;;;;;;;;;3591810;40;20040;-61
2021/07/14 05:53:58;;;;;;;27.33;14.47;;;;;;;;;;3592243;40;20724;-61
2021/07/14 05:56:23;;;;;;;32.17;15.90;;;;;;;;;;3590926;40;20071;-61
2021/07/14 05:58:48;;;;;;;31.10;14.80;;;;;;;;;;3592444;39;20264;-61
2021/07/14 06:01:13;;;;;;;35.50;16.13;;;;;;;;;;3590959;40;20032;-61
2021/07/14 06:03:38;;;;;;;22.67;14.73;;;;;;;;;;3591472;40;20024;-61
2021/07/14 06:06:04;;;;;;;32.80;15.47;;;;;;;;;;3590994;39;20036;-61
2021/07/14 06:08:29;;;;;;;32.57;15.77;;;;;;;;;;3592128;40;20020;-61
2021/07/14 06:10:54;;;;;;;28.47;15.80;;;;;;;;;;3591460;40;20032;-61
2021/07/14 06:13:19;;;;;;;27.00;15.47;;;;;;;;;;3591617;39;20028;-61
2021/07/14 06:15:45;;;;;;;26.42;15.15;;;;;;;;;;3591964;40;20359;-61
2021/07/14 06:18:10;;;;;;;35.93;15.97;;;;;;;;;;3591777;40;20227;-61
2021/07/14 06:20:35;;;;;;;24.63;15.32;;;;;;;;;;3592111;39;20469;-61
2021/07/14 06:23:01;;;;;;;24.90;14.20;;;;;;;;;;3590609;40;20027;-61
2021/07/14 06:25:26;;;;;;;28.30;16.23;;;;;;;;;;3590723;39;20064;-61
2021/07/14 06:27:51;;;;;;;29.43;14.90;;;;;;;;;;3590606;40;21051;-61
2021/07/14 06:30:16;;;;;;;28.20;16.10;;;;;;;;;;3591277;39;20104;-61
2021/07/14 06:32:42;;;;;;;23.07;14.70;;;;;;;;;;3589974;40;20580;-61
2021/07/14 06:35:07;;;;;;;26.07;14.97;;;;;;;;;;3591082;40;20329;-61
2021/07/14 06:37:32;;;;;;;30.27;16.13;;;;;;;;;;3590208;40;20352;-61
2021/07/14 06:39:58;;;;;;;33.95;15.88;;;;;;;;;;3590721;39;21159;-62
2021/07/14 06:42:23;;;;;;;27.77;16.47;;;;;;;;;;3589566;40;20075;-61
2021/07/14 06:44:48;;;;;;;25.80;15.67;;;;;;;;;;3591238;40;20043;-62
2021/07/14 06:47:13;;;;;;;29.07;16.27;;;;;;;;;;3591104;40;20028;-62
2021/07/14 06:49:38;;;;;;;25.07;15.73;;;;;;;;;;3590919;40;20028;-62
2021/07/14 06:52:04;;;;;;;26.83;16.43;;;;;;;;;;3590279;40;20092;-62
2021/07/14 06:54:29;;;;;;;25.37;16.07;;;;;;;;;;3590523;39;20162;-62
2021/07/14 06:56:54;;;;;;;21.50;15.10;;;;;;;;;;3590672;39;20027;-62
2021/07/14 06:59:19;;;;;;;23.20;14.87;;;;;;;;;;3591465;39;20417;-61
2021/07/14 07:01:44;;;;;;;26.90;14.90;;;;;;;;;;3590626;39;20024;-62
2021/07/14 07:04:10;;;;;;;22.43;14.53;;;;;;;;;;3590605;40;20036;-67
2021/07/14 07:06:35;;;;;;;34.97;19.77;;;;;;;;;;3590665;39;20877;-66
2021/07/14 07:09:00;;;;;;;24.50;15.13;;;;;;;;;;3591443;40;20425;-66
2021/07/14 07:11:26;;;;;;;20.27;14.35;;;;;;;;;;3590784;39;20020;-66
2021/07/14 07:13:51;;;;;;;36.30;20.67;;;;;;;;;;3591565;40;20065;-66
2021/07/14 07:16:16;;;;;;;18.52;12.98;;;;;;;;;;3590142;40;20871;-66
2021/07/14 07:18:41;;;;;;;25.53;12.60;;;;;;;;;;3590204;39;20481;-66
2021/07/14 07:21:07;;;;;;;26.23;12.00;;;;;;;;;;3589960;40;20305;-65
2021/07/14 07:23:33;;;;;;;16.38;10.40;;;;;;;;;;3590648;39;20024;-66
2021/07/14 07:25:58;;;;;;;19.47;10.77;;;;;;;;;;3591465;40;20044;-65
2021/07/14 07:28:29;;;;;;;23.65;12.80;;;;;;;;;;3590298;40;20151;-65
2021/07/14 07:30:54;;;;;;;18.70;11.48;;;;;;;;;;3590254;40;20035;-65
2021/07/14 07:33:19;;;;;;;27.53;11.20;;;;;;;;;;3591622;39;20051;-65
2021/07/14 07:35:45;;;;;;;24.00;13.33;;;;;;;;;;3591242;39;20110;-65
2021/07/14 07:38:10;;;;;;;17.27;10.10;;;;;;;;;;3591251;40;20028;-66
2021/07/14 07:40:35;;;;;;;15.77;10.27;;;;;;;;;;3588425;40;20044;-65
2021/07/14 07:43:00;;;;;;;15.87;9.30;;;;;;;;;;3590869;39;20117;-65
2021/07/14 07:45:25;;;;;;;16.00;9.10;;;;;;;;;;3589769;40;20036;-65
2021/07/14 07:47:51;;;;;;;12.13;8.13;;;;;;;;;;3590416;40;20508;-65
2021/07/14 07:50:16;;;;;;;23.00;8.60;;;;;;;;;;3587905;40;20763;-65
2021/07/14 07:52:41;;;;;;;14.80;7.97;;;;;;;;;;3590114;40;20367;-65
2021/07/14 07:55:07;;;;;;;12.70;8.37;;;;;;;;;;3589783;40;20041;-65
2021/07/14 07:57:32;;;;;;;11.85;8.07;;;;;;;;;;3590187;39;20112;-65
2021/07/14 07:59:57;;;;;;;10.33;7.27;;;;;;;;;;3590189;40;20091;-64
2021/07/14 08:02:22;;;;;;;13.67;7.37;;;;;;;;;;3589269;40;20150;-65
2021/07/14 08:04:48;;;;;;;14.80;8.40;;;;;;;;;;3590054;40;20842;-64
2021/07/14 08:07:13;;;;;;;12.00;8.30;;;;;;;;;;3590183;40;20527;-65
2021/07/14 08:09:38;;;;;;;12.03;7.93;;;;;;;;;;3589904;40;20020;-64
2021/07/14 08:12:03;;;;;;;11.57;7.77;;;;;;;;;;3589573;40;20028;-66
2021/07/14 08:14:28;;;;;;;16.33;8.00;;;;;;;;;;3589792;40;20035;-65
2021/07/14 08:16:54;;;;;;;14.97;8.33;;;;;;;;;;3590257;40;20040;-65
2021/07/14 08:19:19;;;;;;;19.17;7.70;;;;;;;;;;3590068;40;20882;-65
2021/07/14 08:21:44;;;;;;;13.17;6.73;;;;;;;;;;3588519;40;20024;-64
2021/07/14 08:24:09;;;;;;;12.33;6.53;;;;;;;;;;3590090;40;20036;-65
2021/07/14 08:26:34;;;;;;;8.93;6.87;;;;;;;;;;3589796;40;20020;-65
2021/07/14 08:29:00;;;;;;;12.80;6.70;;;;;;;;;;3589972;39;20038;-62
2021/07/14 08:31:25;;;;;;;17.13;6.53;;;;;;;;;;3588786;39;20032;-62
2021/07/14 08:33:50;;;;;;;17.47;6.87;;;;;;;;;;3588205;40;20056;-61
2021/07/14 08:36:15;;;;;;;14.07;6.37;;;;;;;;;;3590850;40;20281;-62
2021/07/14 08:38:41;;;;;;;11.50;6.63;;;;;;;;;;3589461;40;20228;-69
2021/07/14 08:41:07;;;;;;;13.90;6.68;;;;;;;;;;3580523;40;20040;-68
2021/07/14 08:43:33;;;;;;;7.68;6.45;;;;;;;;;;3590117;39;20032;-68
2021/07/14 08:46:01;;;;;;;8.93;5.72;;;;;;;;;;3589190;40;20132;-67
2021/07/14 08:48:26;;;;;;;17.13;9.75;;;;;;;;;;3590741;40;20043;-67
2021/07/14 08:50:52;;;;;;;9.45;5.30;;;;;;;;;;3588144;40;20029;-70
2021/07/14 08:53:17;;;;;;;9.73;5.60;;;;;;;;;;3588437;40;20105;-66
2021/07/14 08:55:42;;;;;;;7.93;5.90;;;;;;;;;;3589594;40;20675;-67
2021/07/14 08:58:08;;;;;;;11.80;6.00;;;;;;;;;;3588290;40;20051;-68
2021/07/14 09:00:33;;;;;;;11.90;6.80;;;;;;;;;;3588632;40;20756;-69
2021/07/14 09:02:58;;;;;;;12.30;7.23;;;;;;;;;;3588879;40;20036;-67
2021/07/14 09:05:23;;;;;;;15.23;7.67;;;;;;;;;;3589167;40;20032;-66
2021/07/14 09:07:49;;;;;;;8.77;7.10;;;;;;;;;;3589099;40;20352;-67
2021/07/14 09:10:14;;;;;;;15.77;7.80;;;;;;;;;;3589791;40;20092;-67
2021/07/14 09:12:39;;;;;;;18.47;8.23;;;;;;;;;;3590411;40;20262;-66
2021/07/14 09:15:05;;;;;;;19.00;7.53;;;;;;;;;;3589353;40;20037;-68
2021/07/14 09:17:30;;;;;;;15.37;7.70;;;;;;;;;;3590693;40;20413;-68
2021/07/14 09:19:55;;;;;;;16.17;9.93;;;;;;;;;;3589241;40;20028;-61
2021/07/14 09:22:20;;;;;;;17.57;11.83;;;;;;;;;;3589326;40;20113;-61
2021/07/14 09:24:48;;;;;;;15.07;8.73;;;;;;;;;;3590303;40;20048;-61
2021/07/14 09:27:13;;;;;;;22.80;12.25;;;;;;;;;;3589059;40;20121;-61
2021/07/14 09:29:38;;;;;;;15.57;9.13;;;;;;;;;;3589174;40;20045;-61
2021/07/14 09:32:03;;;;;;;12.67;8.20;;;;;;;;;;3589088;40;20634;-61
2021/07/14 09:34:29;;;;;;;13.93;7.93;;;;;;;;;;3590454;40;20806;-61
2021/07/14 09:36:54;;;;;;;17.23;8.73;;;;;;;;;;3588254;40;20158;-61
2021/07/14 09:39:19;;;;;;;12.30;8.00;;;;;;;;;;3590294;40;20286;-61
2021/07/14 09:41:46;;;;;;;12.23;7.83;;;;;;;;;;3591160;39;20762;-62
2021/07/14 09:44:11;;;;;;;16.67;7.93;;;;;;;;;;3591345;39;20025;-62
2021/07/14 09:46:40;;;;;;;13.60;7.13;;;;;;;;;;3591905;40;20047;-62
2021/07/14 09:49:05;;;;;;;16.83;8.20;;;;;;;;;;3591802;39;20305;-61
2021/07/14 09:51:30;;;;;;;11.53;7.60;;;;;;;;;;3591602;40;20028;-61
2021/07/14 09:53:56;;;;;;;13.57;7.60;;;;;;;;;;3590322;40;20383;-62
2021/07/14 09:56:22;;;;;;;10.00;7.85;;;;;;;;;;3591495;39;20095;-61
2021/07/14 09:58:47;;;;;;;14.98;8.30;;;;;;;;;;3591852;39;20121;-61
2021/07/14 10:01:12;;;;;;;13.93;9.70;;;;;;;;;;3591053;40;20047;-62
2021/07/14 10:03:37;;;;;;;14.63;8.80;;;;;;;;;;3590460;40;20125;-62
2021/07/14 10:06:03;;;;;;;15.13;9.97;;;;;;;;;;3591688;40;20043;-62
2021/07/14 10:08:28;;;;;;;26.08;11.77;;;;;;;;;;3591099;39;20662;-62
2021/07/14 10:10:53;;;;;;;15.10;9.50;;;;;;;;;;3591239;40;20684;-61
2021/07/14 10:13:21;;;;;;;12.87;8.77;;;;;;;;;;3591337;40;20069;-62
2021/07/14 10:15:46;;;;;;;13.77;8.68;;;;;;;;;;3590494;40;20032;-62
2021/07/14 10:18:12;;;;;;;15.93;9.00;;;;;;;;;;3591836;40;20161;-62
2021/07/14 10:20:38;;;;;;;15.32;9.00;;;;;;;;;;3591213;39;20032;-62
2021/07/14 10:23:03;;;;;;;12.38;8.43;;;;;;;;;;3590229;40;20024;-61
2021/07/14 10:25:29;;;;;;;14.00;8.03;;;;;;;;;;3591294;40;20025;-62
2021/07/14 10:27:54;;;;;;;17.65;7.75;;;;;;;;;;3591294;40;20031;-65
2021/07/14 10:30:19;;;;;;;18.07;7.27;;;;;;;;;;3590206;40;20088;-62
2021/07/14 10:32:45;;;;;;;15.53;7.77;;;;;;;;;;3590065;40;20012;-62
2021/07/14 10:35:10;;;;;;;13.00;7.10;;;;;;;;;;3591469;40;20052;-62
2021/07/14 10:37:36;;;;;;;17.00;8.63;;;;;;;;;;3591091;40;20784;-62
2021/07/14 10:40:02;;;;;;;10.50;6.70;;;;;;;;;;3591434;39;20035;-62
2021/07/14 10:42:27;;;;;;;15.82;6.38;;;;;;;;;;3590104;40;20020;-62
2021/07/14 10:44:52;;;;;;;13.75;6.68;;;;;;;;;;3591068;39;20501;-61
2021/07/14 10:47:18;;;;;;;11.20;6.00;;;;;;;;;;3591806;40;20016;-62
2021/07/14 10:49:43;;;;;;;11.05;6.30;;;;;;;;;;3591034;39;20032;-62
2021/07/14 10:52:08;;;;;;;14.37;6.20;;;;;;;;;;3590578;39;20040;-61
2021/07/14 10:54:33;;;;;;;9.60;6.30;;;;;;;;;;3591351;40;20798;-62
2021/07/14 10:57:01;;;;;;;9.27;5.70;;;;;;;;;;3591170;40;20068;-62
2021/07/14 10:59:26;;;;;;;12.80;6.03;;;;;;;;;;3590989;39;20021;-62
2021/07/14 11:01:52;;;;;;;14.43;6.07;;;;;;;;;;3588173;40;20028;-62
2021/07/14 11:04:17;;;;;;;7.50;5.85;;;;;;;;;;3590755;39;20519;-62
2021/07/14 11:06:42;;;;;;;8.33;5.37;;;;;;;;;;3590741;40;20048;-62
2021/07/14 11:09:08;;;;;;;11.57;5.60;;;;;;;;;;3591187;40;20603;-62
2021/07/14 11:11:37;;;;;;;10.60;5.97;;;;;;;;;;3590343;40;20784;-62
2021/07/14 11:14:02;;;;;;;12.15;5.47;;;;;;;;;;3590431;39;20017;-60
2021/07/14 11:16:28;;;;;;;8.98;6.22;;;;;;;;;;3590326;40;20017;-60
2021/07/14 11:18:53;;;;;;;10.75;5.60;;;;;;;;;;3591267;39;20025;-61
2021/07/14 11:21:18;;;;;;;9.50;5.90;;;;;;;;;;3591060;40;20028;-61
2021/07/14 11:23:44;;;;;;;10.40;5.70;;;;;;;;;;3590240;40;20547;-61
2021/07/14 11:26:09;;;;;;;12.07;6.15;;;;;;;;;;3591730;40;20021;-61
2021/07/14 11:28:34;;;;;;;113.57;59.00;;;;;;;;;;3590699;40;20068;-60
2021/07/14 11:30:59;;;;;;;16.77;7.77;;;;;;;;;;3590403;39;20464;-61
2021/07/14 11:33:25;;;;;;;17.73;7.67;;;;;;;;;;3589581;40;20138;-61
2021/07/14 11:35:50;;;;;;;16.85;6.50;;;;;;;;;;3590383;39;20286;-61
2021/07/14 11:38:15;;;;;;;9.37;6.23;;;;;;;;;;3589463;40;20077;-61
2021/07/14 11:40:41;;;;;;;14.30;6.53;;;;;;;;;;3591629;40;20401;-61
2021/07/14 11:43:06;;;;;;;18.92;6.00;;;;;;;;;;3589916;40;20057;-61
2021/07/14 11:45:31;;;;;;;10.90;5.77;;;;;;;;;;3591905;40;20025;-60
2021/07/14 11:47:59;;;;;;;10.70;6.25;;;;;;;;;;3589768;40;20411;-60
2021/07/14 11:50:24;;;;;;;13.63;6.20;;;;;;;;;;3588756;40;20036;-60
2021/07/14 11:52:49;;;;;;;10.83;6.13;;;;;;;;;;3589563;40;20305;-61
2021/07/14 11:55:15;;;;;;;8.77;6.00;;;;;;;;;;3590110;40;20028;-61
2021/07/14 11:57:40;;;;;;;12.27;6.40;;;;;;;;;;3590517;40;20036;-61
2021/07/14 12:00:05;;;;;;;10.37;6.07;;;;;;;;;;3588562;40;20481;-61
2021/07/14 12:02:30;;;;;;;8.57;6.20;;;;;;;;;;3589048;40;20427;-61
2021/07/14 12:04:55;;;;;;;21.73;6.73;;;;;;;;;;3589422;39;20036;-61
2021/07/14 12:07:21;;;;;;;9.07;5.83;;;;;;;;;;3589972;40;20372;-61
2021/07/14 12:09:46;;;;;;;10.50;5.22;;;;;;;;;;3591377;39;20043;-61
2021/07/14 12:12:11;;;;;;;8.60;5.63;;;;;;;;;;3591357;40;20315;-61
2021/07/14 12:14:37;;;;;;;13.93;4.90;;;;;;;;;;3591101;40;20017;-61
2021/07/14 12:17:02;;;;;;;7.72;5.00;;;;;;;;;;3591209;39;20269;-62
2021/07/14 12:19:27;;;;;;;10.00;4.83;;;;;;;;;;3590818;40;20102;-62
2021/07/14 12:21:53;;;;;;;8.30;4.47;;;;;;;;;;3590521;40;20121;-61
2021/07/14 12:24:18;;;;;;;14.23;6.00;;;;;;;;;;3589599;40;20027;-62
2021/07/14 12:26:43;;;;;;;7.57;5.00;;;;;;;;;;3589497;40;20028;-61
2021/07/14 12:29:08;;;;;;;20.93;12.97;;;;;;;;;;3590737;40;20428;-61
2021/07/14 12:31:33;;;;;;;10.27;6.33;;;;;;;;;;3590735;39;20858;-62
2021/07/14 12:33:59;;;;;;;14.32;7.22;;;;;;;;;;3588753;40;20737;-62
2021/07/14 12:36:24;;;;;;;5.00;4.50;;;;;;;;;;3590835;40;20040;-61
2021/07/14 12:38:49;;;;;;;7.33;4.50;;;;;;;;;;3589689;40;20020;-62
2021/07/14 12:41:15;;;;;;;13.20;9.00;;;;;;;;;;3590547;40;20511;-62
2021/07/14 12:43:40;;;;;;;15.70;9.20;;;;;;;;;;3589844;39;20036;-62
2021/07/14 12:46:05;;;;;;;10.83;5.20;;;;;;;;;;3588699;40;20282;-62
2021/07/14 12:48:31;;;;;;;7.07;5.90;;;;;;;;;;3589770;40;20325;-61
2021/07/14 12:50:57;;;;;;;6.93;5.53;;;;;;;;;;3587371;40;20117;-62
2021/07/14 12:53:22;;;;;;;8.17;5.50;;;;;;;;;;3589016;40;20036;-62
2021/07/14 12:55:47;;;;;;;15.30;6.07;;;;;;;;;;3590503;40;20064;-61
2021/07/14 12:58:12;;;;;;;6.03;5.10;;;;;;;;;;3590394;40;20551;-61
2021/07/14 13:00:37;;;;;;;9.23;5.77;;;;;;;;;;3590663;40;20091;-61
2021/07/14 13:03:03;;;;;;;8.75;5.40;;;;;;;;;;3591320;40;20039;-61
2021/07/14 13:05:29;;;;;;;12.00;7.13;;;;;;;;;;3590926;39;20125;-62
2021/07/14 13:07:54;;;;;;;10.10;5.70;;;;;;;;;;3589311;40;20089;-62
2021/07/14 13:10:19;;;;;;;17.77;5.67;;;;;;;;;;3586325;40;20409;-62
2021/07/14 13:12:44;;;;;;;18.47;9.30;;;;;;;;;;3588988;40;20445;-62
2021/07/14 13:15:11;;;;;;;10.57;5.20;;;;;;;;;;3589024;39;20291;-61
2021/07/14 13:17:37;;;;;;;13.10;8.75;;;;;;;;;;3591603;39;20044;-62
2021/07/14 13:20:02;;;;;;;7.47;5.10;;;;;;;;;;3591238;39;20884;-60
2021/07/14 13:22:28;;;;;;;9.77;5.10;;;;;;;;;;3590480;40;20604;-61
2021/07/14 13:24:53;;;;;;;9.00;5.30;;;;;;;;;;3592571;40;20661;-60
2021/07/14 13:27:18;;;;;;;5.10;4.57;;;;;;;;;;3592141;40;20020;-60
2021/07/14 13:29:43;;;;;;;14.47;5.57;;;;;;;;;;3592730;40;20108;-61
2021/07/14 13:32:08;;;;;;;10.30;5.27;;;;;;;;;;3591180;40;20024;-61
2021/07/14 13:34:34;;;;;;;8.57;5.43;;;;;;;;;;3591733;40;20837;-61
2021/07/14 13:37:01;;;;;;;5.47;4.47;;;;;;;;;;3590970;40;20032;-60
2021/07/14 13:39:28;;;;;;;9.82;5.07;;;;;;;;;;3590639;40;20031;-60
2021/07/14 13:41:53;;;;;;;5.05;4.40;;;;;;;;;;3591554;39;20074;-60
2021/07/14 13:44:18;;;;;;;8.80;4.00;;;;;;;;;;3590972;40;20028;-60
2021/07/14 13:46:44;;;;;;;4.53;3.23;;;;;;;;;;3590604;40;20333;-60
2021/07/14 13:49:09;;;;;;;5.13;2.70;;;;;;;;;;3590561;40;20024;-60
2021/07/14 13:51:34;;;;;;;6.13;2.57;;;;;;;;;;3589806;40;20258;-61
2021/07/14 13:54:00;;;;;;;5.22;2.80;;;;;;;;;;3590352;39;20334;-61
2021/07/14 13:56:25;;;;;;;3.80;2.93;;;;;;;;;;3591307;40;20064;-61
2021/07/14 13:58:50;;;;;;;6.93;3.20;;;;;;;;;;3591611;40;20270;-61
2021/07/14 14:01:15;;;;;;;5.37;2.67;;;;;;;;;;3590753;40;20109;-61
2021/07/14 14:03:41;;;;;;;6.07;3.07;;;;;;;;;;3589460;40;20409;-61
2021/07/14 14:06:06;;;;;;;6.53;2.70;;;;;;;;;;3590507;40;20038;-61
2021/07/14 14:08:31;;;;;;;5.50;3.70;;;;;;;;;;3591523;40;20068;-61
2021/07/14 14:10:57;;;;;;;3.07;2.77;;;;;;;;;;3590260;40;20028;-61
2021/07/14 14:13:25;;;;;;;10.87;3.53;;;;;;;;;;3591521;39;20084;-60
2021/07/14 14:15:50;;;;;;;4.40;2.70;;;;;;;;;;3589804;40;20299;-61
2021/07/14 14:18:15;;;;;;;14.53;2.97;;;;;;;;;;3589300;40;20035;-61
2021/07/14 14:20:41;;;;;;;4.03;3.13;;;;;;;;;;3590485;40;20031;-61
2021/07/14 14:23:06;;;;;;;3.97;2.73;;;;;;;;;;3590838;40;20024;-61
2021/07/14 14:25:52;;;;;;;7.15;3.00;;;;;;;;;;3590156;40;20026;-61
2021/07/14 14:28:21;;;;;;;5.63;3.00;;;;;;;;;;3589706;39;20048;-61
2021/07/14 14:30:48;;;;;;;3.88;2.53;;;;;;;;;;3591025;39;20656;-62